Time;durP1;ratioP1;P1;durP2;ratioP2;P2;SDS_P1;SDS_P2;PMS_P1;PMS_P2;Temp;Humidity;BMP_temperature;BMP_pressure;BME280_temperature;BME280_humidity;BME280_pressure;Samples;Min_cycle;Max_cycle;Signal;HPM_P1;HPM_P2
2023/10/22 00:04:28;;;;;;;3.47;3.17;;;13.90;99.90;;;;;;10540251;28;20211;-81
2023/10/22 00:09:53;;;;;;;3.80;3.50;;;13.90;99.90;;;;;;10535774;28;20212;-81
2023/10/22 00:15:16;;;;;;;3.47;3.27;;;13.80;99.90;;;;;;10545531;28;20214;-81
2023/10/22 00:20:38;;;;;;;3.50;3.30;;;13.80;99.90;;;;;;10577804;28;20251;-81
2023/10/22 00:26:02;;;;;;;4.03;3.73;;;13.80;99.90;;;;;;10542206;28;20196;-81
2023/10/22 00:31:24;;;;;;;3.97;3.77;;;13.70;99.90;;;;;;10534583;28;20204;-81
2023/10/22 00:36:46;;;;;;;3.53;3.33;;;13.70;99.90;;;;;;10549102;28;20228;-81
2023/10/22 00:42:10;;;;;;;5.70;5.10;;;13.70;99.90;;;;;;10575481;28;20196;-80
2023/10/22 00:47:33;;;;;;;5.13;4.43;;;13.70;99.90;;;;;;10542095;28;20227;-81
2023/10/22 00:52:57;;;;;;;4.10;3.77;;;13.60;99.90;;;;;;10575958;28;20203;-81
2023/10/22 00:58:21;;;;;;;3.67;3.37;;;13.60;99.90;;;;;;10539183;28;20564;-80
2023/10/22 01:03:43;;;;;;;3.43;3.23;;;13.60;99.90;;;;;;10553928;28;20215;-81
2023/10/22 01:09:09;;;;;;;3.40;3.20;;;13.50;99.90;;;;;;10525558;28;20219;-81
2023/10/22 01:14:33;;;;;;;2.87;2.77;;;13.50;99.90;;;;;;10568746;28;20592;-81
2023/10/22 01:19:56;;;;;;;3.70;3.40;;;13.50;99.90;;;;;;10561527;28;20228;-81
2023/10/22 01:25:21;;;;;;;4.10;3.77;;;13.50;99.90;;;;;;10569857;28;20211;-79
2023/10/22 01:30:43;;;;;;;4.03;3.80;;;13.40;99.90;;;;;;10562964;28;20215;-79
2023/10/22 01:36:06;;;;;;;3.57;3.40;;;13.40;99.90;;;;;;10561102;28;20235;-81
2023/10/22 01:41:29;;;;;;;3.60;3.40;;;13.40;99.90;;;;;;10520523;28;20529;-79
2023/10/22 01:46:52;;;;;;;4.27;3.87;;;13.30;99.90;;;;;;10549229;28;20224;-80
2023/10/22 01:52:14;;;;;;;3.67;3.37;;;13.20;99.90;;;;;;10524650;28;20195;-80
2023/10/22 01:57:37;;;;;;;3.17;2.97;;;13.20;99.90;;;;;;10540580;28;20308;-80
2023/10/22 02:03:00;;;;;;;3.47;3.17;;;13.10;99.90;;;;;;10547805;28;20203;-79
2023/10/22 02:08:22;;;;;;;2.97;2.80;;;13.10;99.90;;;;;;10550008;28;20220;-80
2023/10/22 02:13:46;;;;;;;3.00;2.90;;;13.00;99.90;;;;;;10557586;28;20215;-80
2023/10/22 02:19:08;;;;;;;3.60;3.03;;;13.00;99.90;;;;;;10543508;28;20751;-80
2023/10/22 02:24:30;;;;;;;3.13;2.83;;;13.10;99.90;;;;;;10562462;28;20229;-80
2023/10/22 02:29:54;;;;;;;3.07;2.77;;;13.10;99.90;;;;;;10550960;28;20601;-80
2023/10/22 02:35:16;;;;;;;3.90;2.70;;;13.20;99.90;;;;;;10531219;28;20209;-80
2023/10/22 02:40:38;;;;;;;2.87;2.77;;;13.20;99.90;;;;;;10532889;28;20238;-80
2023/10/22 02:46:02;;;;;;;2.80;2.60;;;13.20;99.90;;;;;;10557010;28;20222;-80
2023/10/22 02:51:24;;;;;;;2.80;2.60;;;13.20;99.90;;;;;;10565816;28;20200;-80
2023/10/22 02:56:46;;;;;;;3.00;2.80;;;13.20;99.90;;;;;;10554405;28;20287;-79
2023/10/22 03:02:11;;;;;;;2.77;2.67;;;13.20;99.90;;;;;;10523614;28;20230;-80
2023/10/22 03:07:33;;;;;;;2.93;2.73;;;13.20;99.90;;;;;;10526691;28;20232;-80
2023/10/22 03:12:57;;;;;;;3.87;2.90;;;13.20;99.90;;;;;;10535898;28;20732;-80
2023/10/22 03:18:20;;;;;;;4.90;3.13;;;13.20;99.90;;;;;;10538347;28;20238;-80
2023/10/22 03:23:42;;;;;;;3.10;2.90;;;13.20;99.90;;;;;;10562481;28;20207;-80
2023/10/22 03:29:05;;;;;;;2.80;2.70;;;13.20;99.90;;;;;;10547488;28;20595;-80
2023/10/22 03:34:29;;;;;;;2.90;2.80;;;13.30;99.90;;;;;;10574934;28;20254;-80
2023/10/22 03:39:51;;;;;;;2.90;2.70;;;13.30;99.90;;;;;;10518527;22;20653;-77
2023/10/22 03:45:13;;;;;;;7.33;3.17;;;13.30;99.90;;;;;;10498799;28;20673;-77
2023/10/22 03:50:37;;;;;;;3.20;3.00;;;13.30;99.90;;;;;;10468172;28;20229;-77
2023/10/22 03:56:00;;;;;;;2.90;2.70;;;13.30;99.90;;;;;;10472703;28;20548;-77
2023/10/22 04:01:22;;;;;;;3.40;3.20;;;13.30;99.90;;;;;;10473831;28;20304;-77
2023/10/22 04:06:46;;;;;;;3.07;2.97;;;13.20;99.90;;;;;;10469047;28;20281;-77
2023/10/22 04:12:09;;;;;;;2.90;2.80;;;13.30;99.90;;;;;;10456145;28;20663;-78
2023/10/22 04:17:31;;;;;;;3.50;3.27;;;13.30;99.90;;;;;;10464041;28;20311;-77
2023/10/22 04:22:55;;;;;;;3.43;3.13;;;13.30;99.90;;;;;;10465344;28;20259;-78
2023/10/22 04:28:17;;;;;;;3.13;2.90;;;13.30;99.90;;;;;;10503071;28;20594;-77
2023/10/22 04:33:39;;;;;;;3.50;2.70;;;13.30;99.90;;;;;;10518535;28;20681;-77
2023/10/22 04:39:03;;;;;;;3.23;3.07;;;13.30;99.90;;;;;;10461646;28;20230;-78
2023/10/22 04:44:25;;;;;;;2.80;2.60;;;13.30;99.90;;;;;;10488560;28;20202;-78
2023/10/22 04:49:49;;;;;;;3.10;2.90;;;13.20;99.90;;;;;;10473104;28;20216;-78
2023/10/22 04:55:13;;;;;;;3.40;3.10;;;13.20;99.90;;;;;;10483512;28;20564;-77
2023/10/22 05:00:35;;;;;;;2.77;2.57;;;13.20;99.90;;;;;;10480487;28;20244;-78
2023/10/22 05:05:58;;;;;;;2.53;2.43;;;13.20;99.90;;;;;;10453108;28;20722;-78
2023/10/22 05:11:21;;;;;;;2.70;2.50;;;13.10;99.90;;;;;;10466148;28;20196;-78
2023/10/22 05:16:44;;;;;;;2.80;2.60;;;13.20;99.90;;;;;;10460237;28;20306;-78
2023/10/22 05:22:06;;;;;;;2.50;2.30;;;13.20;99.90;;;;;;10477925;28;20669;-78
2023/10/22 05:27:29;;;;;;;2.93;2.73;;;13.20;99.90;;;;;;10466482;28;20279;-78
2023/10/22 05:32:53;;;;;;;3.10;2.90;;;13.20;99.90;;;;;;10474860;28;20208;-78
2023/10/22 05:38:15;;;;;;;3.10;2.90;;;13.20;99.90;;;;;;10466301;28;20235;-78
2023/10/22 05:43:38;;;;;;;3.20;2.97;;;13.10;99.90;;;;;;10478868;28;20212;-78
2023/10/22 05:49:02;;;;;;;2.83;2.60;;;13.10;99.90;;;;;;10486781;28;20209;-78
2023/10/22 05:54:24;;;;;;;4.80;2.70;;;13.10;99.90;;;;;;10455236;28;20214;-78
2023/10/22 05:59:48;;;;;;;2.73;2.30;;;13.00;99.90;;;;;;10464497;28;20225;-77
2023/10/22 06:05:12;;;;;;;2.30;2.20;;;13.00;99.90;;;;;;10481438;28;20216;-78
2023/10/22 06:10:40;;;;;;;2.40;2.20;;;13.00;99.90;;;;;;10488302;28;20756;-78
2023/10/22 06:16:04;;;;;;;2.37;2.27;;;13.00;99.90;;;;;;10448577;28;20203;-78
2023/10/22 06:21:26;;;;;;;2.33;2.10;;;13.00;99.90;;;;;;10454910;28;20228;-78
2023/10/22 06:26:48;;;;;;;2.60;2.40;;;13.10;99.90;;;;;;10479636;28;20252;-78
2023/10/22 06:32:12;;;;;;;2.87;2.67;;;13.10;99.90;;;;;;10458284;28;20552;-78
2023/10/22 06:37:34;;;;;;;2.30;2.13;;;13.20;99.90;;;;;;10466834;28;20244;-78
2023/10/22 06:42:57;;;;;;;3.93;2.40;;;13.10;99.90;;;;;;10464858;28;20201;-77
2023/10/22 06:48:22;;;;;;;2.60;2.40;;;13.10;99.90;;;;;;10475409;28;20228;-77
2023/10/22 06:53:45;;;;;;;3.80;1.97;;;13.20;99.90;;;;;;10467932;28;20212;-77
2023/10/22 06:59:07;;;;;;;2.40;2.20;;;13.20;99.90;;;;;;10467197;28;20228;-77
2023/10/22 07:04:30;;;;;;;2.10;1.97;;;13.20;99.90;;;;;;10466354;28;20213;-77
2023/10/22 07:09:52;;;;;;;2.67;2.20;;;13.20;99.90;;;;;;10476037;28;20710;-77
2023/10/22 07:15:15;;;;;;;4.37;2.80;;;13.20;99.90;;;;;;10461114;28;20583;-77
2023/10/22 07:20:39;;;;;;;2.57;2.37;;;13.20;99.90;;;;;;10460009;28;20238;-77
2023/10/22 07:26:01;;;;;;;2.40;2.20;;;13.20;99.90;;;;;;10489520;28;20201;-77
2023/10/22 07:31:23;;;;;;;2.13;2.03;;;13.30;99.90;;;;;;10457063;28;20678;-77
2023/10/22 07:36:47;;;;;;;3.77;2.00;;;13.30;99.90;;;;;;10457762;28;20226;-77
2023/10/22 07:42:09;;;;;;;3.80;1.90;;;13.40;99.90;;;;;;10466766;28;20739;-76
2023/10/22 07:47:31;;;;;;;2.00;1.90;;;13.40;99.90;;;;;;10474641;28;20224;-77
2023/10/22 07:52:55;;;;;;;2.20;1.97;;;13.40;99.90;;;;;;10461757;28;20192;-77
2023/10/22 07:58:17;;;;;;;2.93;2.10;;;13.50;99.90;;;;;;10477271;28;20235;-78
2023/10/22 08:03:39;;;;;;;2.20;2.00;;;13.50;99.90;;;;;;10483406;28;20565;-77
2023/10/22 08:09:03;;;;;;;4.27;2.43;;;13.60;99.90;;;;;;10469645;28;20213;-77
2023/10/22 08:14:27;;;;;;;3.90;2.20;;;13.70;99.90;;;;;;10477534;28;20589;-78
2023/10/22 08:19:49;;;;;;;1.87;1.77;;;13.70;99.60;;;;;;10462002;28;20382;-78
2023/10/22 08:25:13;;;;;;;2.67;2.17;;;13.70;99.80;;;;;;10475533;28;20205;-78
2023/10/22 08:30:35;;;;;;;2.50;2.17;;;13.80;99.20;;;;;;10490470;28;20221;-78
2023/10/22 08:36:04;;;;;;;3.90;1.70;;;13.80;99.20;;;;;;10469680;28;20210;-78
2023/10/22 08:41:37;;;;;;;4.10;2.23;;;13.90;99.70;;;;;;10463325;28;20220;-78
2023/10/22 08:46:59;;;;;;;2.60;2.40;;;14.00;99.20;;;;;;10485603;28;20217;-77
2023/10/22 08:52:22;;;;;;;5.07;1.57;;;14.10;98.80;;;;;;10468463;28;20208;-77
2023/10/22 08:57:46;;;;;;;1.97;1.60;;;14.10;99.20;;;;;;10470326;28;20227;-78
2023/10/22 09:03:08;;;;;;;3.40;1.90;;;14.20;99.20;;;;;;10470055;28;20201;-78
2023/10/22 09:08:43;;;;;;;3.23;1.63;;;14.30;98.90;;;;;;10491044;28;20228;-77
2023/10/22 09:14:21;;;;;;;3.83;2.00;;;14.40;98.80;;;;;;10453719;28;20325;-77
2023/10/22 09:19:47;;;;;;;3.73;1.87;;;14.40;98.40;;;;;;10465478;28;20224;-78
2023/10/22 09:25:09;;;;;;;6.53;1.77;;;14.50;98.80;;;;;;10470700;28;20202;-78
2023/10/22 09:30:32;;;;;;;2.80;1.87;;;14.60;98.50;;;;;;10477961;28;20240;-78
2023/10/22 09:36:00;;;;;;;4.40;1.93;;;14.70;99.10;;;;;;10468099;28;20588;-79
2023/10/22 09:41:27;;;;;;;3.33;1.83;;;14.80;98.40;;;;;;10519759;23;20227;-77
2023/10/22 09:46:52;;;;;;;4.07;1.97;;;14.80;98.40;;;;;;10494649;28;20193;-79
2023/10/22 09:52:17;;;;;;;3.30;1.80;;;14.90;98.30;;;;;;10479297;28;20200;-77
2023/10/22 09:57:40;;;;;;;3.23;1.90;;;14.90;97.90;;;;;;10470637;28;20259;-77
2023/10/22 10:03:04;;;;;;;3.60;1.90;;;14.90;98.00;;;;;;10475170;28;20208;-80
2023/10/22 10:08:27;;;;;;;1.60;1.27;;;15.00;98.40;;;;;;10474261;28;20229;-80
2023/10/22 10:13:49;;;;;;;3.43;1.47;;;15.10;97.70;;;;;;10462051;28;20596;-80
2023/10/22 10:19:21;;;;;;;3.90;2.20;;;15.10;97.30;;;;;;10489303;28;20585;-80
2023/10/22 10:24:44;;;;;;;2.53;1.73;;;15.30;98.00;;;;;;10480861;28;20288;-79
2023/10/22 10:30:17;;;;;;;2.90;1.60;;;15.70;97.60;;;;;;10489049;28;20219;-80
2023/10/22 10:35:48;;;;;;;2.13;1.93;;;16.00;96.30;;;;;;10504038;28;20201;-80
2023/10/22 10:41:10;;;;;;;3.77;1.90;;;16.10;96.70;;;;;;10510587;28;20652;-76
2023/10/22 10:46:33;;;;;;;1.90;1.50;;;16.30;96.60;;;;;;10501144;28;20205;-80
2023/10/22 10:52:02;;;;;;;1.60;1.50;;;16.40;96.30;;;;;;10503573;28;20196;-79
2023/10/22 11:03:40;;;;;;;6.57;2.60;;;16.10;96.90;;;;;;10490932;28;20202;-78
2023/10/22 11:09:14;;;;;;;2.40;1.60;;;16.00;96.10;;;;;;10500398;28;20303;-78
2023/10/22 11:14:58;;;;;;;3.30;1.40;;;15.90;96.30;;;;;;10500853;28;20196;-79
2023/10/22 11:20:22;;;;;;;4.80;1.57;;;16.00;95.60;;;;;;10475314;28;20229;-79
2023/10/22 11:26:04;;;;;;;2.00;1.77;;;16.00;95.50;;;;;;10465689;28;20201;-77
2023/10/22 11:31:33;;;;;;;6.00;1.80;;;16.10;94.90;;;;;;10481098;28;20329;-80
2023/10/22 11:37:01;;;;;;;2.23;1.57;;;16.30;94.50;;;;;;10486341;28;20197;-77
2023/10/22 11:42:36;;;;;;;2.90;1.90;;;16.50;94.30;;;;;;10452461;28;20202;-76
2023/10/22 11:48:12;;;;;;;4.23;1.60;;;16.50;94.20;;;;;;10460499;28;20659;-77
2023/10/22 11:53:53;;;;;;;3.80;1.47;;;16.50;93.80;;;;;;10482384;28;20697;-76
2023/10/22 11:59:21;;;;;;;1.60;1.50;;;16.40;93.60;;;;;;10452389;28;20222;-78
2023/10/22 12:04:43;;;;;;;2.40;2.13;;;16.30;93.20;;;;;;10470383;28;20729;-79
2023/10/22 12:10:06;;;;;;;1.73;1.60;;;16.20;93.50;;;;;;10477677;28;20653;-78
2023/10/22 12:15:30;;;;;;;3.10;1.50;;;16.00;93.30;;;;;;10468338;28;20212;-79
2023/10/22 12:20:52;;;;;;;2.40;1.70;;;16.00;94.10;;;;;;10490677;28;20343;-78
2023/10/22 12:26:15;;;;;;;1.77;1.67;;;15.90;93.50;;;;;;10490702;28;20585;-77
2023/10/22 12:31:39;;;;;;;2.07;1.70;;;15.90;93.40;;;;;;10469736;28;20264;-80
2023/10/22 12:37:01;;;;;;;2.60;1.50;;;15.90;94.00;;;;;;10498679;28;20295;-80
2023/10/22 12:42:23;;;;;;;2.90;1.57;;;15.80;94.20;;;;;;10485021;28;20550;-78
2023/10/22 12:47:47;;;;;;;2.90;2.00;;;15.80;94.70;;;;;;10482148;28;20221;-78
2023/10/22 12:53:09;;;;;;;2.90;1.30;;;15.90;94.10;;;;;;10476820;28;20864;-79
2023/10/22 12:58:31;;;;;;;2.03;1.30;;;16.00;93.40;;;;;;10488412;28;20225;-80
2023/10/22 13:03:55;;;;;;;4.70;1.40;;;16.00;93.00;;;;;;10495748;28;20675;-80
2023/10/22 13:09:17;;;;;;;2.20;1.33;;;16.10;92.40;;;;;;10481770;28;20214;-80
2023/10/22 13:14:39;;;;;;;2.67;1.80;;;16.10;93.20;;;;;;10479191;28;20205;-80
2023/10/22 13:20:08;;;;;;;2.20;1.33;;;16.10;92.70;;;;;;10467662;28;20217;-79
2023/10/22 13:25:30;;;;;;;2.83;1.90;;;16.10;92.70;;;;;;10488397;28;20227;-80
2023/10/22 13:30:52;;;;;;;3.43;1.50;;;16.10;93.60;;;;;;10479840;28;20237;-79
2023/10/22 13:36:18;;;;;;;2.80;1.50;;;16.20;93.40;;;;;;10461040;28;20694;-78
2023/10/22 13:41:55;;;;;;;1.60;1.50;;;16.30;93.40;;;;;;10467595;28;20233;-78
2023/10/22 13:47:21;;;;;;;3.97;1.50;;;16.30;92.90;;;;;;10496878;28;20217;-79
2023/10/22 13:52:44;;;;;;;2.23;1.30;;;16.40;92.70;;;;;;10488483;28;20220;-80
2023/10/22 13:58:10;;;;;;;4.53;1.70;;;16.30;93.50;;;;;;10494958;28;20251;-78
2023/10/22 14:03:33;;;;;;;1.60;1.50;;;16.40;92.90;;;;;;10452016;28;20700;-79
2023/10/22 14:08:56;;;;;;;1.60;1.13;;;16.50;93.30;;;;;;10488571;28;20653;-80
2023/10/22 14:14:18;;;;;;;2.87;1.63;;;16.60;92.10;;;;;;10482216;28;20204;-79
2023/10/22 14:19:41;;;;;;;1.97;1.40;;;16.80;91.00;;;;;;10487975;28;20278;-79
2023/10/22 14:25:05;;;;;;;2.03;1.40;;;16.90;91.60;;;;;;10473605;28;20202;-79
2023/10/22 14:30:27;;;;;;;1.30;1.20;;;16.90;91.80;;;;;;10491874;28;20229;-81
2023/10/22 14:35:49;;;;;;;1.60;1.43;;;16.80;92.70;;;;;;10493249;28;20208;-80
2023/10/22 14:41:13;;;;;;;1.60;1.50;;;16.70;92.30;;;;;;10499997;28;20225;-80
2023/10/22 14:46:35;;;;;;;2.40;1.20;;;16.60;93.00;;;;;;10490819;28;20296;-80
2023/10/22 14:51:57;;;;;;;1.97;1.40;;;16.50;93.00;;;;;;10486450;28;20274;-81
2023/10/22 14:57:21;;;;;;;2.17;1.70;;;16.40;93.60;;;;;;10482197;28;20227;-80
2023/10/22 15:02:46;;;;;;;3.13;2.60;;;16.30;94.70;;;;;;10470896;28;20258;-81
2023/10/22 15:08:08;;;;;;;7.70;5.40;;;16.30;94.40;;;;;;10472092;28;20236;-79
2023/10/22 15:13:32;;;;;;;4.80;3.30;;;16.20;95.00;;;;;;10497942;28;20217;-79
2023/10/22 15:18:54;;;;;;;3.33;2.20;;;16.10;95.30;;;;;;10499388;28;20240;-80
2023/10/22 15:24:16;;;;;;;3.93;2.90;;;16.10;95.80;;;;;;10486774;28;20212;-79
2023/10/22 15:29:40;;;;;;;5.00;3.30;;;16.00;94.80;;;;;;10488630;28;20237;-80
2023/10/22 15:35:02;;;;;;;1.93;1.53;;;16.00;95.20;;;;;;10498653;28;20419;-77
2023/10/22 15:40:26;;;;;;;2.07;1.93;;;16.00;95.60;;;;;;10498546;28;20610;-80
2023/10/22 15:45:52;;;;;;;2.03;1.60;;;15.90;96.10;;;;;;10470536;28;20686;-78
2023/10/22 15:51:16;;;;;;;2.20;1.60;;;15.80;95.70;;;;;;10486607;28;20230;-79
2023/10/22 15:56:39;;;;;;;1.90;1.80;;;15.70;96.10;;;;;;10465255;28;20198;-78
2023/10/22 16:02:02;;;;;;;4.60;3.23;;;15.50;96.00;;;;;;10474040;28;20336;-79
2023/10/22 16:07:25;;;;;;;2.03;1.93;;;15.40;95.80;;;;;;10462444;28;20896;-79
2023/10/22 16:12:47;;;;;;;7.70;3.33;;;15.30;96.30;;;;;;10475701;28;20248;-79
2023/10/22 16:18:11;;;;;;;3.33;3.07;;;15.20;96.60;;;;;;10473237;28;20233;-79
2023/10/22 16:23:33;;;;;;;3.90;2.63;;;15.00;97.00;;;;;;10468885;28;20202;-79
2023/10/22 16:28:56;;;;;;;4.77;3.83;;;14.90;97.30;;;;;;10463176;28;20228;-79
2023/10/22 16:34:19;;;;;;;3.50;3.17;;;14.80;97.50;;;;;;10475660;28;20197;-79
2023/10/22 16:39:42;;;;;;;3.67;3.43;;;14.70;97.60;;;;;;10472456;28;20234;-79
2023/10/22 16:45:04;;;;;;;4.33;3.30;;;14.60;97.40;;;;;;10465172;28;20666;-79
2023/10/22 16:50:28;;;;;;;7.23;3.20;;;14.50;97.50;;;;;;10475433;28;20327;-79
2023/10/22 16:55:50;;;;;;;6.07;3.37;;;14.40;97.50;;;;;;10471672;28;20620;-78
2023/10/22 17:01:13;;;;;;;4.37;3.33;;;14.30;97.70;;;;;;10476522;28;20218;-79
2023/10/22 17:06:36;;;;;;;2.90;2.70;;;14.20;97.80;;;;;;10479469;28;20209;-79
2023/10/22 17:11:58;;;;;;;9.77;3.70;;;14.10;97.90;;;;;;10469956;28;20285;-79
2023/10/22 17:17:21;;;;;;;3.50;3.20;;;14.10;97.80;;;;;;10471741;28;20220;-77
2023/10/22 17:22:44;;;;;;;4.47;3.43;;;14.00;98.00;;;;;;10476498;28;20201;-76
2023/10/22 17:28:06;;;;;;;4.37;3.93;;;13.90;98.00;;;;;;10472597;28;20229;-79
2023/10/22 17:33:29;;;;;;;4.10;3.70;;;13.80;98.10;;;;;;10472473;28;20687;-79
2023/10/22 17:38:52;;;;;;;4.63;3.67;;;13.80;98.30;;;;;;10479353;28;20727;-79
2023/10/22 17:44:14;;;;;;;3.90;3.53;;;13.70;98.40;;;;;;10467867;28;20672;-79
2023/10/22 17:49:37;;;;;;;4.63;3.40;;;13.70;98.40;;;;;;10482014;28;20216;-78
2023/10/22 17:55:00;;;;;;;5.17;3.73;;;13.70;98.40;;;;;;10470545;28;20223;-79
2023/10/22 18:00:22;;;;;;;6.57;3.13;;;13.70;98.50;;;;;;10470896;28;20226;-80
2023/10/22 18:05:45;;;;;;;4.43;3.30;;;13.60;98.70;;;;;;10482561;28;20288;-78
2023/10/22 18:11:08;;;;;;;6.53;4.27;;;13.70;98.50;;;;;;10463609;28;20240;-78
2023/10/22 18:16:32;;;;;;;6.70;4.10;;;13.60;98.50;;;;;;10465632;28;20702;-79
2023/10/22 18:21:54;;;;;;;5.90;4.50;;;13.60;99.00;;;;;;10470118;28;20256;-79
2023/10/22 18:27:18;;;;;;;4.90;4.37;;;13.60;99.20;;;;;;10456799;28;20232;-78
2023/10/22 18:32:40;;;;;;;3.70;3.40;;;13.60;99.30;;;;;;10488080;28;20244;-78
2023/10/22 18:38:02;;;;;;;7.70;4.20;;;13.60;99.10;;;;;;10469676;28;20240;-79
2023/10/22 18:43:26;;;;;;;6.63;4.33;;;13.60;99.20;;;;;;10473039;28;20205;-80
2023/10/22 18:48:49;;;;;;;5.50;3.47;;;13.60;99.30;;;;;;10448754;28;20221;-80
2023/10/22 18:54:11;;;;;;;8.23;4.10;;;13.60;99.60;;;;;;10464876;28;20227;-80
2023/10/22 18:59:35;;;;;;;4.60;4.20;;;13.60;99.80;;;;;;10475037;28;20791;-80
2023/10/22 19:04:58;;;;;;;3.60;3.30;;;13.60;99.90;;;;;;10462718;28;20208;-80
2023/10/22 19:10:21;;;;;;;7.50;4.57;;;13.60;99.90;;;;;;10490158;28;20233;-79
2023/10/22 19:15:44;;;;;;;5.50;5.10;;;13.60;99.90;;;;;;10483501;28;20204;-80
2023/10/22 19:21:08;;;;;;;4.07;3.77;;;13.60;99.90;;;;;;10484287;28;20599;-80
2023/10/22 19:26:30;;;;;;;4.60;4.23;;;13.60;99.90;;;;;;10472118;28;20208;-80
2023/10/22 19:31:54;;;;;;;3.33;3.00;;;13.60;99.90;;;;;;10465183;28;20221;-80
2023/10/22 19:37:16;;;;;;;4.63;4.23;;;13.60;99.90;;;;;;10482940;28;20242;-80
2023/10/22 19:42:39;;;;;;;4.80;4.20;;;13.60;99.90;;;;;;10487267;28;20211;-78
2023/10/22 19:48:02;;;;;;;4.30;3.90;;;13.60;99.90;;;;;;10483159;28;20214;-79
2023/10/22 19:53:25;;;;;;;4.73;4.23;;;13.60;99.90;;;;;;10469049;28;20220;-77
2023/10/22 19:58:48;;;;;;;3.83;3.53;;;13.60;99.90;;;;;;10465872;28;20307;-78
2023/10/22 20:04:12;;;;;;;4.47;4.07;;;13.50;99.90;;;;;;10459557;28;20855;-80
2023/10/22 20:09:34;;;;;;;5.60;3.60;;;13.50;99.90;;;;;;10477883;28;20275;-79
2023/10/22 20:14:56;;;;;;;4.77;3.90;;;13.40;99.90;;;;;;10468792;28;20209;-80
2023/10/22 20:20:20;;;;;;;4.77;3.40;;;13.40;99.90;;;;;;10483043;28;20228;-79
2023/10/22 20:25:43;;;;;;;4.43;4.03;;;13.40;99.90;;;;;;10481648;28;20197;-79
2023/10/22 20:31:05;;;;;;;4.47;4.07;;;13.30;99.90;;;;;;10489240;28;20545;-80
2023/10/22 20:36:28;;;;;;;5.17;4.60;;;13.30;99.90;;;;;;10505068;28;20208;-79
2023/10/22 20:41:50;;;;;;;7.23;4.37;;;13.30;99.90;;;;;;10487953;28;20201;-79
2023/10/22 20:47:13;;;;;;;5.40;4.80;;;13.20;99.90;;;;;;10487999;28;20214;-77
2023/10/22 20:52:37;;;;;;;4.90;4.43;;;13.20;99.90;;;;;;10488618;28;20228;-79
2023/10/22 20:57:59;;;;;;;4.93;4.40;;;13.20;99.90;;;;;;10487055;28;20221;-80
2023/10/22 21:03:21;;;;;;;4.00;3.70;;;13.20;99.90;;;;;;10474020;28;20204;-80
2023/10/22 21:08:46;;;;;;;5.67;3.80;;;13.20;99.90;;;;;;10468774;28;20304;-80
2023/10/22 21:14:08;;;;;;;5.33;3.67;;;13.20;99.90;;;;;;10472385;28;20227;-79
2023/10/22 21:19:31;;;;;;;6.67;4.50;;;13.20;99.90;;;;;;10472516;28;20233;-79
2023/10/22 21:24:54;;;;;;;3.80;3.50;;;13.10;99.90;;;;;;10458340;28;20284;-80
2023/10/22 21:30:16;;;;;;;4.77;4.37;;;13.10;99.90;;;;;;10466404;28;20217;-81
2023/10/22 21:35:39;;;;;;;3.43;3.10;;;13.10;99.90;;;;;;10461167;28;20196;-79
2023/10/22 21:41:02;;;;;;;7.60;3.50;;;13.10;99.90;;;;;;10480473;23;20240;-77
2023/10/22 21:46:24;;;;;;;6.17;3.50;;;13.10;99.90;;;;;;10520999;28;20204;-77
2023/10/22 21:51:47;;;;;;;6.10;3.90;;;13.10;99.90;;;;;;10494816;28;20642;-77
2023/10/22 21:57:11;;;;;;;4.00;3.47;;;13.00;99.90;;;;;;10468389;28;20302;-77
2023/10/22 22:02:33;;;;;;;3.60;2.93;;;12.90;99.90;;;;;;10474245;28;20325;-77
2023/10/22 22:07:55;;;;;;;4.73;3.40;;;12.90;99.90;;;;;;10490210;28;20682;-77
2023/10/22 22:13:18;;;;;;;4.53;3.43;;;12.90;99.90;;;;;;10468086;28;20225;-77
2023/10/22 22:18:41;;;;;;;3.80;3.50;;;12.80;99.90;;;;;;10470844;28;20201;-77
2023/10/22 22:24:03;;;;;;;4.20;3.47;;;12.80;99.90;;;;;;10465351;28;20689;-77
2023/10/22 22:29:27;;;;;;;3.63;2.80;;;12.80;99.90;;;;;;10494553;28;20208;-77
2023/10/22 22:34:49;;;;;;;3.30;3.10;;;12.70;99.90;;;;;;10489504;28;20230;-77
2023/10/22 22:40:12;;;;;;;3.60;3.30;;;12.70;99.90;;;;;;10475187;28;20252;-77
2023/10/22 22:45:35;;;;;;;4.10;3.33;;;12.60;99.90;;;;;;10463592;28;20209;-76
2023/10/22 22:50:58;;;;;;;3.77;3.57;;;12.60;99.90;;;;;;10482551;28;20217;-77
2023/10/22 22:56:20;;;;;;;3.20;2.90;;;12.50;99.90;;;;;;10487094;28;20204;-77
2023/10/22 23:01:43;;;;;;;3.13;2.90;;;12.50;99.90;;;;;;10467958;28;20213;-77
2023/10/22 23:07:06;;;;;;;3.47;3.17;;;12.40;99.90;;;;;;10465466;28;20194;-77
2023/10/22 23:12:29;;;;;;;4.40;3.10;;;12.40;99.90;;;;;;10475567;28;21585;-77
2023/10/22 23:17:53;;;;;;;5.43;3.00;;;12.30;99.90;;;;;;10451009;28;20654;-77
2023/10/22 23:23:15;;;;;;;3.00;2.80;;;12.20;99.90;;;;;;10493647;28;20225;-77
2023/10/22 23:28:37;;;;;;;4.53;3.20;;;12.10;99.90;;;;;;10525892;28;20192;-77
2023/10/22 23:34:01;;;;;;;3.07;2.70;;;12.00;99.90;;;;;;10523817;28;20235;-77
2023/10/22 23:39:23;;;;;;;3.23;2.73;;;12.00;99.90;;;;;;10489395;28;20701;-76
2023/10/22 23:44:45;;;;;;;4.03;3.03;;;11.90;99.90;;;;;;10505158;28;20221;-76
2023/10/22 23:50:10;;;;;;;3.73;3.43;;;11.90;99.90;;;;;;10533129;28;20215;-77
2023/10/22 23:55:32;;;;;;;3.03;2.90;;;11.80;99.90;;;;;;10501415;28;20242;-77
